sensor_id;sensor_type;location;lat;lon;timestamp;P1;durP1;ratioP1;P2;durP2;ratioP2
11348;SDS011;5729;43.570;27.826;2022-09-09T00:04:00;3.72;;;2.10;;
11348;SDS011;5729;43.570;27.826;2022-09-09T00:06:28;4.32;;;1.88;;
11348;SDS011;5729;43.570;27.826;2022-09-09T00:09:11;4.07;;;1.90;;
11348;SDS011;5729;43.570;27.826;2022-09-09T00:20:12;1.67;;;1.58;;
11348;SDS011;5729;43.570;27.826;2022-09-09T00:22:39;4.50;;;1.75;;
11348;SDS011;5729;43.570;27.826;2022-09-09T00:25:12;4.35;;;1.95;;
11348;SDS011;5729;43.570;27.826;2022-09-09T00:27:49;4.00;;;1.95;;
11348;SDS011;5729;43.570;27.826;2022-09-09T00:30:19;2.35;;;2.00;;
11348;SDS011;5729;43.570;27.826;2022-09-09T00:32:50;3.78;;;2.10;;
11348;SDS011;5729;43.570;27.826;2022-09-09T00:35:29;2.17;;;1.73;;
11348;SDS011;5729;43.570;27.826;2022-09-09T00:38:05;3.00;;;1.70;;
11348;SDS011;5729;43.570;27.826;2022-09-09T00:40:44;4.13;;;1.80;;
11348;SDS011;5729;43.570;27.826;2022-09-09T00:49:31;2.08;;;1.77;;
11348;SDS011;5729;43.570;27.826;2022-09-09T00:54:45;4.93;;;2.00;;
11348;SDS011;5729;43.570;27.826;2022-09-09T00:59:52;5.88;;;2.05;;
11348;SDS011;5729;43.570;27.826;2022-09-09T01:02:44;2.72;;;2.15;;
11348;SDS011;5729;43.570;27.826;2022-09-09T01:07:57;5.00;;;1.90;;
11348;SDS011;5729;43.570;27.826;2022-09-09T01:13:34;4.07;;;1.90;;
11348;SDS011;5729;43.570;27.826;2022-09-09T01:16:02;2.30;;;1.80;;
11348;SDS011;5729;43.570;27.826;2022-09-09T01:18:34;2.92;;;1.70;;
11348;SDS011;5729;43.570;27.826;2022-09-09T01:27:11;1.85;;;1.70;;
11348;SDS011;5729;43.570;27.826;2022-09-09T01:29:40;5.38;;;2.25;;
11348;SDS011;5729;43.570;27.826;2022-09-09T01:35:09;3.10;;;1.67;;
11348;SDS011;5729;43.570;27.826;2022-09-09T01:37:54;4.38;;;1.90;;
11348;SDS011;5729;43.570;27.826;2022-09-09T01:40:19;4.25;;;1.85;;
11348;SDS011;5729;43.570;27.826;2022-09-09T01:42:44;6.03;;;2.10;;
11348;SDS011;5729;43.570;27.826;2022-09-09T01:45:10;2.85;;;1.35;;
11348;SDS011;5729;43.570;27.826;2022-09-09T01:47:35;4.82;;;2.08;;
11348;SDS011;5729;43.570;27.826;2022-09-09T01:50:01;2.25;;;1.65;;
11348;SDS011;5729;43.570;27.826;2022-09-09T01:52:28;1.75;;;1.65;;
11348;SDS011;5729;43.570;27.826;2022-09-09T01:54:54;3.78;;;2.03;;
11348;SDS011;5729;43.570;27.826;2022-09-09T01:57:27;3.42;;;1.90;;
11348;SDS011;5729;43.570;27.826;2022-09-09T02:00:08;3.05;;;2.03;;
11348;SDS011;5729;43.570;27.826;2022-09-09T02:02:39;2.17;;;1.98;;
11348;SDS011;5729;43.570;27.826;2022-09-09T02:05:27;3.03;;;1.80;;
11348;SDS011;5729;43.570;27.826;2022-09-09T02:07:59;2.40;;;1.88;;
11348;SDS011;5729;43.570;27.826;2022-09-09T02:10:31;2.90;;;1.80;;
11348;SDS011;5729;43.570;27.826;2022-09-09T02:13:12;2.97;;;1.80;;
11348;SDS011;5729;43.570;27.826;2022-09-09T02:18:36;2.80;;;2.08;;
11348;SDS011;5729;43.570;27.826;2022-09-09T02:21:08;3.40;;;1.85;;
11348;SDS011;5729;43.570;27.826;2022-09-09T02:23:36;4.85;;;1.90;;
11348;SDS011;5729;43.570;27.826;2022-09-09T02:26:04;4.85;;;2.05;;
11348;SDS011;5729;43.570;27.826;2022-09-09T02:28:33;3.40;;;1.88;;
11348;SDS011;5729;43.570;27.826;2022-09-09T02:31:01;1.73;;;1.60;;
11348;SDS011;5729;43.570;27.826;2022-09-09T02:33:28;4.95;;;1.85;;
11348;SDS011;5729;43.570;27.826;2022-09-09T02:36:00;2.85;;;1.77;;
11348;SDS011;5729;43.570;27.826;2022-09-09T02:38:29;3.85;;;1.98;;
11348;SDS011;5729;43.570;27.826;2022-09-09T02:41:00;4.63;;;1.70;;
11348;SDS011;5729;43.570;27.826;2022-09-09T02:43:30;2.67;;;2.00;;
11348;SDS011;5729;43.570;27.826;2022-09-09T02:46:01;1.80;;;1.67;;
11348;SDS011;5729;43.570;27.826;2022-09-09T02:49:25;3.42;;;1.63;;
11348;SDS011;5729;43.570;27.826;2022-09-09T02:56:56;2.45;;;1.75;;
11348;SDS011;5729;43.570;27.826;2022-09-09T02:59:26;3.85;;;2.00;;
11348;SDS011;5729;43.570;27.826;2022-09-09T03:01:52;2.33;;;2.00;;
11348;SDS011;5729;43.570;27.826;2022-09-09T03:04:18;3.45;;;1.85;;
11348;SDS011;5729;43.570;27.826;2022-09-09T03:06:44;2.75;;;1.67;;
11348;SDS011;5729;43.570;27.826;2022-09-09T03:09:09;4.15;;;1.70;;
11348;SDS011;5729;43.570;27.826;2022-09-09T03:11:35;2.65;;;1.60;;
11348;SDS011;5729;43.570;27.826;2022-09-09T03:14:01;2.53;;;1.80;;
11348;SDS011;5729;43.570;27.826;2022-09-09T03:16:27;4.80;;;1.90;;
11348;SDS011;5729;43.570;27.826;2022-09-09T03:18:52;3.05;;;2.00;;
11348;SDS011;5729;43.570;27.826;2022-09-09T03:21:18;1.95;;;1.85;;
11348;SDS011;5729;43.570;27.826;2022-09-09T03:23:43;3.28;;;1.77;;
11348;SDS011;5729;43.570;27.826;2022-09-09T03:26:10;2.72;;;1.90;;
11348;SDS011;5729;43.570;27.826;2022-09-09T03:28:35;3.22;;;1.90;;
11348;SDS011;5729;43.570;27.826;2022-09-09T03:31:01;1.98;;;1.67;;
11348;SDS011;5729;43.570;27.826;2022-09-09T03:33:28;2.97;;;2.10;;
11348;SDS011;5729;43.570;27.826;2022-09-09T03:35:54;2.03;;;1.70;;
11348;SDS011;5729;43.570;27.826;2022-09-09T03:38:21;4.03;;;2.10;;
11348;SDS011;5729;43.570;27.826;2022-09-09T03:40:51;3.25;;;1.88;;
11348;SDS011;5729;43.570;27.826;2022-09-09T03:43:22;3.17;;;2.10;;
11348;SDS011;5729;43.570;27.826;2022-09-09T03:45:51;8.32;;;2.22;;
11348;SDS011;5729;43.570;27.826;2022-09-09T03:48:17;3.65;;;2.05;;
11348;SDS011;5729;43.570;27.826;2022-09-09T03:50:44;4.25;;;1.85;;
11348;SDS011;5729;43.570;27.826;2022-09-09T03:53:11;3.15;;;1.92;;
11348;SDS011;5729;43.570;27.826;2022-09-09T03:55:36;10.80;;;2.80;;
11348;SDS011;5729;43.570;27.826;2022-09-09T03:58:02;5.80;;;2.13;;
11348;SDS011;5729;43.570;27.826;2022-09-09T04:00:27;8.23;;;2.15;;
11348;SDS011;5729;43.570;27.826;2022-09-09T04:02:53;4.82;;;2.20;;
11348;SDS011;5729;43.570;27.826;2022-09-09T04:05:19;3.75;;;2.40;;
11348;SDS011;5729;43.570;27.826;2022-09-09T04:07:45;4.63;;;2.10;;
11348;SDS011;5729;43.570;27.826;2022-09-09T04:10:10;2.97;;;2.08;;
11348;SDS011;5729;43.570;27.826;2022-09-09T04:12:35;4.63;;;2.05;;
11348;SDS011;5729;43.570;27.826;2022-09-09T04:15:01;4.47;;;1.98;;
11348;SDS011;5729;43.570;27.826;2022-09-09T04:17:27;2.70;;;2.00;;
11348;SDS011;5729;43.570;27.826;2022-09-09T04:19:52;3.85;;;1.92;;
11348;SDS011;5729;43.570;27.826;2022-09-09T04:22:18;7.03;;;2.33;;
11348;SDS011;5729;43.570;27.826;2022-09-09T04:24:43;4.80;;;2.00;;
11348;SDS011;5729;43.570;27.826;2022-09-09T04:27:09;17.23;;;2.67;;
11348;SDS011;5729;43.570;27.826;2022-09-09T04:29:34;9.50;;;2.47;;
11348;SDS011;5729;43.570;27.826;2022-09-09T04:32:00;7.88;;;2.72;;
11348;SDS011;5729;43.570;27.826;2022-09-09T04:34:25;9.15;;;2.55;;
11348;SDS011;5729;43.570;27.826;2022-09-09T04:36:51;5.10;;;2.10;;
11348;SDS011;5729;43.570;27.826;2022-09-09T04:39:21;7.38;;;2.22;;
11348;SDS011;5729;43.570;27.826;2022-09-09T04:41:46;2.85;;;1.73;;
11348;SDS011;5729;43.570;27.826;2022-09-09T04:44:12;5.25;;;2.30;;
11348;SDS011;5729;43.570;27.826;2022-09-09T04:46:37;4.00;;;1.83;;
11348;SDS011;5729;43.570;27.826;2022-09-09T04:49:03;5.40;;;3.05;;
11348;SDS011;5729;43.570;27.826;2022-09-09T04:51:28;5.00;;;2.15;;
11348;SDS011;5729;43.570;27.826;2022-09-09T04:53:56;3.08;;;2.10;;
11348;SDS011;5729;43.570;27.826;2022-09-09T04:56:21;2.30;;;1.90;;
11348;SDS011;5729;43.570;27.826;2022-09-09T04:58:47;2.17;;;1.70;;
11348;SDS011;5729;43.570;27.826;2022-09-09T05:01:14;7.45;;;1.75;;
11348;SDS011;5729;43.570;27.826;2022-09-09T05:03:42;4.18;;;1.83;;
11348;SDS011;5729;43.570;27.826;2022-09-09T05:06:11;8.73;;;2.40;;
11348;SDS011;5729;43.570;27.826;2022-09-09T05:08:38;2.97;;;1.95;;
11348;SDS011;5729;43.570;27.826;2022-09-09T05:11:19;4.53;;;1.80;;
11348;SDS011;5729;43.570;27.826;2022-09-09T05:13:49;7.40;;;2.13;;
11348;SDS011;5729;43.570;27.826;2022-09-09T05:16:15;6.25;;;1.98;;
11348;SDS011;5729;43.570;27.826;2022-09-09T05:18:42;3.60;;;1.50;;
11348;SDS011;5729;43.570;27.826;2022-09-09T05:21:08;2.20;;;1.70;;
11348;SDS011;5729;43.570;27.826;2022-09-09T05:23:34;8.95;;;2.00;;
11348;SDS011;5729;43.570;27.826;2022-09-09T05:26:00;5.75;;;1.85;;
11348;SDS011;5729;43.570;27.826;2022-09-09T05:28:26;8.90;;;2.17;;
11348;SDS011;5729;43.570;27.826;2022-09-09T05:31:02;5.25;;;2.05;;
11348;SDS011;5729;43.570;27.826;2022-09-09T05:33:30;7.78;;;1.80;;
11348;SDS011;5729;43.570;27.826;2022-09-09T05:36:00;7.80;;;1.92;;
11348;SDS011;5729;43.570;27.826;2022-09-09T05:38:28;3.38;;;2.35;;
11348;SDS011;5729;43.570;27.826;2022-09-09T05:40:54;4.22;;;2.17;;
11348;SDS011;5729;43.570;27.826;2022-09-09T05:43:21;2.05;;;1.83;;
11348;SDS011;5729;43.570;27.826;2022-09-09T05:45:47;1.90;;;1.70;;
11348;SDS011;5729;43.570;27.826;2022-09-09T05:48:14;2.97;;;1.73;;
11348;SDS011;5729;43.570;27.826;2022-09-09T05:50:43;5.15;;;1.70;;
11348;SDS011;5729;43.570;27.826;2022-09-09T05:53:10;4.60;;;2.20;;
11348;SDS011;5729;43.570;27.826;2022-09-09T05:55:35;1.58;;;1.48;;
11348;SDS011;5729;43.570;27.826;2022-09-09T05:58:01;3.72;;;1.48;;
11348;SDS011;5729;43.570;27.826;2022-09-09T06:00:27;2.33;;;1.80;;
11348;SDS011;5729;43.570;27.826;2022-09-09T06:02:53;6.95;;;1.88;;
11348;SDS011;5729;43.570;27.826;2022-09-09T06:05:19;5.82;;;1.70;;
11348;SDS011;5729;43.570;27.826;2022-09-09T06:07:45;2.35;;;1.95;;
11348;SDS011;5729;43.570;27.826;2022-09-09T06:10:11;5.88;;;2.00;;
11348;SDS011;5729;43.570;27.826;2022-09-09T06:12:39;3.50;;;1.80;;
11348;SDS011;5729;43.570;27.826;2022-09-09T06:15:04;2.00;;;1.60;;
11348;SDS011;5729;43.570;27.826;2022-09-09T06:17:30;3.53;;;1.90;;
11348;SDS011;5729;43.570;27.826;2022-09-09T06:19:56;1.95;;;1.70;;
11348;SDS011;5729;43.570;27.826;2022-09-09T06:22:22;4.28;;;1.77;;
11348;SDS011;5729;43.570;27.826;2022-09-09T06:24:47;4.13;;;2.10;;
11348;SDS011;5729;43.570;27.826;2022-09-09T06:27:13;3.00;;;1.63;;
11348;SDS011;5729;43.570;27.826;2022-09-09T06:29:38;1.98;;;1.70;;
11348;SDS011;5729;43.570;27.826;2022-09-09T06:32:04;2.60;;;1.60;;
11348;SDS011;5729;43.570;27.826;2022-09-09T06:34:29;2.85;;;1.73;;
11348;SDS011;5729;43.570;27.826;2022-09-09T06:36:55;5.72;;;2.25;;
11348;SDS011;5729;43.570;27.826;2022-09-09T06:39:22;7.65;;;2.00;;
11348;SDS011;5729;43.570;27.826;2022-09-09T06:41:48;4.47;;;2.20;;
11348;SDS011;5729;43.570;27.826;2022-09-09T06:44:14;5.55;;;2.10;;
11348;SDS011;5729;43.570;27.826;2022-09-09T06:46:41;2.50;;;1.60;;
11348;SDS011;5729;43.570;27.826;2022-09-09T06:49:08;6.72;;;2.45;;
11348;SDS011;5729;43.570;27.826;2022-09-09T06:51:35;5.22;;;2.50;;
11348;SDS011;5729;43.570;27.826;2022-09-09T06:54:07;7.45;;;2.20;;
11348;SDS011;5729;43.570;27.826;2022-09-09T06:56:34;10.68;;;2.72;;
11348;SDS011;5729;43.570;27.826;2022-09-09T06:59:02;8.10;;;3.50;;
11348;SDS011;5729;43.570;27.826;2022-09-09T07:01:31;4.47;;;2.10;;
11348;SDS011;5729;43.570;27.826;2022-09-09T07:03:59;2.08;;;1.92;;
11348;SDS011;5729;43.570;27.826;2022-09-09T07:06:32;3.08;;;2.03;;
11348;SDS011;5729;43.570;27.826;2022-09-09T07:09:05;2.75;;;1.55;;
11348;SDS011;5729;43.570;27.826;2022-09-09T07:11:34;2.38;;;1.63;;
11348;SDS011;5729;43.570;27.826;2022-09-09T07:14:03;2.40;;;1.73;;
11348;SDS011;5729;43.570;27.826;2022-09-09T07:16:28;3.20;;;1.80;;
11348;SDS011;5729;43.570;27.826;2022-09-09T07:18:56;4.40;;;1.80;;
11348;SDS011;5729;43.570;27.826;2022-09-09T07:21:23;3.92;;;1.50;;
11348;SDS011;5729;43.570;27.826;2022-09-09T07:23:51;4.65;;;1.75;;
11348;SDS011;5729;43.570;27.826;2022-09-09T07:26:18;2.65;;;1.73;;
11348;SDS011;5729;43.570;27.826;2022-09-09T07:28:45;2.03;;;1.60;;
11348;SDS011;5729;43.570;27.826;2022-09-09T07:31:18;7.55;;;1.65;;
11348;SDS011;5729;43.570;27.826;2022-09-09T07:33:48;5.57;;;1.50;;
11348;SDS011;5729;43.570;27.826;2022-09-09T07:36:15;2.53;;;1.42;;
11348;SDS011;5729;43.570;27.826;2022-09-09T07:38:55;2.05;;;1.35;;
11348;SDS011;5729;43.570;27.826;2022-09-09T07:41:29;2.15;;;1.65;;
11348;SDS011;5729;43.570;27.826;2022-09-09T07:44:14;3.25;;;1.52;;
11348;SDS011;5729;43.570;27.826;2022-09-09T07:46:42;1.40;;;1.30;;
11348;SDS011;5729;43.570;27.826;2022-09-09T07:49:10;7.63;;;1.60;;
11348;SDS011;5729;43.570;27.826;2022-09-09T07:51:36;2.30;;;1.30;;
11348;SDS011;5729;43.570;27.826;2022-09-09T07:54:06;5.15;;;1.70;;
11348;SDS011;5729;43.570;27.826;2022-09-09T07:56:34;3.25;;;1.70;;
11348;SDS011;5729;43.570;27.826;2022-09-09T07:59:00;2.92;;;1.50;;
11348;SDS011;5729;43.570;27.826;2022-09-09T08:01:27;4.97;;;2.05;;
11348;SDS011;5729;43.570;27.826;2022-09-09T08:06:26;4.85;;;1.92;;
11348;SDS011;5729;43.570;27.826;2022-09-09T08:08:53;7.18;;;2.13;;
11348;SDS011;5729;43.570;27.826;2022-09-09T08:11:20;4.43;;;1.70;;
11348;SDS011;5729;43.570;27.826;2022-09-09T08:13:46;2.78;;;1.67;;
11348;SDS011;5729;43.570;27.826;2022-09-09T08:16:16;5.70;;;1.92;;
11348;SDS011;5729;43.570;27.826;2022-09-09T08:18:46;2.60;;;1.60;;
11348;SDS011;5729;43.570;27.826;2022-09-09T08:21:13;2.50;;;1.45;;
11348;SDS011;5729;43.570;27.826;2022-09-09T08:23:42;3.20;;;1.50;;
11348;SDS011;5729;43.570;27.826;2022-09-09T08:26:17;5.38;;;1.80;;
11348;SDS011;5729;43.570;27.826;2022-09-09T08:28:49;3.03;;;1.30;;
11348;SDS011;5729;43.570;27.826;2022-09-09T08:31:20;4.00;;;1.90;;
11348;SDS011;5729;43.570;27.826;2022-09-09T08:34:07;6.75;;;1.67;;
11348;SDS011;5729;43.570;27.826;2022-09-09T08:36:38;6.25;;;1.52;;
11348;SDS011;5729;43.570;27.826;2022-09-09T08:39:06;3.88;;;1.50;;
11348;SDS011;5729;43.570;27.826;2022-09-09T08:47:02;4.43;;;1.58;;
11348;SDS011;5729;43.570;27.826;2022-09-09T08:57:52;7.32;;;2.22;;
11348;SDS011;5729;43.570;27.826;2022-09-09T09:00:20;7.03;;;1.98;;
11348;SDS011;5729;43.570;27.826;2022-09-09T09:02:48;4.10;;;1.50;;
11348;SDS011;5729;43.570;27.826;2022-09-09T09:05:36;4.40;;;1.70;;
11348;SDS011;5729;43.570;27.826;2022-09-09T09:10:48;4.68;;;2.05;;
11348;SDS011;5729;43.570;27.826;2022-09-09T09:13:20;6.35;;;2.08;;
11348;SDS011;5729;43.570;27.826;2022-09-09T09:15:54;6.35;;;1.90;;
11348;SDS011;5729;43.570;27.826;2022-09-09T09:18:25;5.72;;;2.10;;
11348;SDS011;5729;43.570;27.826;2022-09-09T09:24:12;3.03;;;1.45;;
11348;SDS011;5729;43.570;27.826;2022-09-09T09:26:33;11.07;;;2.10;;
11348;SDS011;5729;43.570;27.826;2022-09-09T09:29:01;2.13;;;1.60;;
11348;SDS011;5729;43.570;27.826;2022-09-09T09:31:37;6.07;;;1.73;;
11348;SDS011;5729;43.570;27.826;2022-09-09T09:34:03;2.42;;;1.48;;
11348;SDS011;5729;43.570;27.826;2022-09-09T09:36:38;3.33;;;1.63;;
11348;SDS011;5729;43.570;27.826;2022-09-09T09:39:08;8.48;;;1.83;;
11348;SDS011;5729;43.570;27.826;2022-09-09T09:44:24;4.28;;;1.70;;
11348;SDS011;5729;43.570;27.826;2022-09-09T09:47:05;5.15;;;1.50;;
11348;SDS011;5729;43.570;27.826;2022-09-09T09:49:33;1.80;;;1.33;;
11348;SDS011;5729;43.570;27.826;2022-09-09T09:52:02;3.70;;;1.63;;
11348;SDS011;5729;43.570;27.826;2022-09-09T09:54:30;2.60;;;1.40;;
11348;SDS011;5729;43.570;27.826;2022-09-09T09:57:12;6.60;;;1.95;;
11348;SDS011;5729;43.570;27.826;2022-09-09T09:59:40;6.60;;;1.50;;
11348;SDS011;5729;43.570;27.826;2022-09-09T10:04:37;7.65;;;1.98;;
11348;SDS011;5729;43.570;27.826;2022-09-09T10:07:10;3.70;;;1.70;;
11348;SDS011;5729;43.570;27.826;2022-09-09T10:09:43;5.95;;;1.50;;
11348;SDS011;5729;43.570;27.826;2022-09-09T10:17:42;4.13;;;1.67;;
11348;SDS011;5729;43.570;27.826;2022-09-09T10:22:51;1.48;;;1.35;;
11348;SDS011;5729;43.570;27.826;2022-09-09T10:25:37;4.57;;;1.65;;
11348;SDS011;5729;43.570;27.826;2022-09-09T10:33:16;2.75;;;1.48;;
11348;SDS011;5729;43.570;27.826;2022-09-09T10:38:40;4.95;;;1.77;;
11348;SDS011;5729;43.570;27.826;2022-09-09T10:52:05;4.82;;;1.45;;
11348;SDS011;5729;43.570;27.826;2022-09-09T10:57:29;11.88;;;1.85;;
11348;SDS011;5729;43.570;27.826;2022-09-09T11:00:03;9.77;;;2.10;;
11348;SDS011;5729;43.570;27.826;2022-09-09T11:02:32;4.72;;;1.60;;
11348;SDS011;5729;43.570;27.826;2022-09-09T11:10:34;2.60;;;1.38;;
11348;SDS011;5729;43.570;27.826;2022-09-09T11:13:17;1.75;;;1.20;;
11348;SDS011;5729;43.570;27.826;2022-09-09T11:16:27;14.65;;;2.45;;
11348;SDS011;5729;43.570;27.826;2022-09-09T11:22:00;2.55;;;1.70;;
11348;SDS011;5729;43.570;27.826;2022-09-09T11:24:35;2.85;;;1.30;;
11348;SDS011;5729;43.570;27.826;2022-09-09T11:29:45;2.83;;;1.52;;
11348;SDS011;5729;43.570;27.826;2022-09-09T11:32:34;3.58;;;1.55;;
11348;SDS011;5729;43.570;27.826;2022-09-09T11:38:28;5.25;;;1.50;;
11348;SDS011;5729;43.570;27.826;2022-09-09T11:41:04;2.45;;;1.70;;
11348;SDS011;5729;43.570;27.826;2022-09-09T11:46:11;2.88;;;1.50;;
11348;SDS011;5729;43.570;27.826;2022-09-09T11:48:41;5.28;;;1.38;;
11348;SDS011;5729;43.570;27.826;2022-09-09T11:53:49;2.40;;;1.42;;
11348;SDS011;5729;43.570;27.826;2022-09-09T11:56:24;16.02;;;2.10;;
11348;SDS011;5729;43.570;27.826;2022-09-09T12:02:12;2.65;;;1.33;;
11348;SDS011;5729;43.570;27.826;2022-09-09T12:04:58;2.10;;;1.40;;
11348;SDS011;5729;43.570;27.826;2022-09-09T12:07:35;2.85;;;1.70;;
11348;SDS011;5729;43.570;27.826;2022-09-09T12:10:20;2.72;;;2.00;;
11348;SDS011;5729;43.570;27.826;2022-09-09T12:12:53;5.45;;;1.60;;
11348;SDS011;5729;43.570;27.826;2022-09-09T12:15:23;3.08;;;1.50;;
11348;SDS011;5729;43.570;27.826;2022-09-09T12:17:53;1.90;;;1.55;;
11348;SDS011;5729;43.570;27.826;2022-09-09T12:28:35;1.50;;;1.27;;
11348;SDS011;5729;43.570;27.826;2022-09-09T12:31:07;6.10;;;1.70;;
11348;SDS011;5729;43.570;27.826;2022-09-09T12:33:42;3.13;;;1.80;;
11348;SDS011;5729;43.570;27.826;2022-09-09T12:36:20;2.50;;;1.77;;
11348;SDS011;5729;43.570;27.826;2022-09-09T12:38:58;1.55;;;1.33;;
11348;SDS011;5729;43.570;27.826;2022-09-09T12:41:35;5.13;;;1.50;;
11348;SDS011;5729;43.570;27.826;2022-09-09T12:44:05;1.88;;;1.45;;
11348;SDS011;5729;43.570;27.826;2022-09-09T12:46:40;4.38;;;1.52;;
11348;SDS011;5729;43.570;27.826;2022-09-09T12:52:13;3.40;;;1.20;;
11348;SDS011;5729;43.570;27.826;2022-09-09T12:54:44;6.13;;;1.60;;
11348;SDS011;5729;43.570;27.826;2022-09-09T12:57:12;6.45;;;1.63;;
11348;SDS011;5729;43.570;27.826;2022-09-09T12:59:43;5.53;;;1.80;;
11348;SDS011;5729;43.570;27.826;2022-09-09T13:02:17;6.93;;;1.83;;
11348;SDS011;5729;43.570;27.826;2022-09-09T13:04:43;4.38;;;1.48;;
11348;SDS011;5729;43.570;27.826;2022-09-09T13:07:10;3.20;;;1.50;;
11348;SDS011;5729;43.570;27.826;2022-09-09T13:09:37;1.20;;;1.10;;
11348;SDS011;5729;43.570;27.826;2022-09-09T13:12:02;2.63;;;1.30;;
11348;SDS011;5729;43.570;27.826;2022-09-09T13:14:32;2.95;;;1.40;;
11348;SDS011;5729;43.570;27.826;2022-09-09T13:17:03;2.85;;;1.45;;
11348;SDS011;5729;43.570;27.826;2022-09-09T13:19:32;3.58;;;1.42;;
11348;SDS011;5729;43.570;27.826;2022-09-09T13:22:14;7.60;;;1.77;;
11348;SDS011;5729;43.570;27.826;2022-09-09T13:24:44;4.20;;;1.60;;
11348;SDS011;5729;43.570;27.826;2022-09-09T13:35:46;3.83;;;1.40;;
11348;SDS011;5729;43.570;27.826;2022-09-09T13:38:14;8.48;;;1.73;;
11348;SDS011;5729;43.570;27.826;2022-09-09T13:40:51;4.65;;;1.60;;
11348;SDS011;5729;43.570;27.826;2022-09-09T13:43:26;5.38;;;1.50;;
11348;SDS011;5729;43.570;27.826;2022-09-09T13:45:53;4.47;;;1.83;;
11348;SDS011;5729;43.570;27.826;2022-09-09T13:48:21;3.05;;;1.42;;
11348;SDS011;5729;43.570;27.826;2022-09-09T13:50:54;5.25;;;1.70;;
11348;SDS011;5729;43.570;27.826;2022-09-09T13:53:20;7.95;;;1.77;;
11348;SDS011;5729;43.570;27.826;2022-09-09T13:55:46;1.63;;;1.30;;
11348;SDS011;5729;43.570;27.826;2022-09-09T13:58:15;3.95;;;1.65;;
11348;SDS011;5729;43.570;27.826;2022-09-09T14:00:45;3.88;;;1.42;;
11348;SDS011;5729;43.570;27.826;2022-09-09T14:03:11;2.05;;;1.15;;
11348;SDS011;5729;43.570;27.826;2022-09-09T14:05:37;2.45;;;1.50;;
11348;SDS011;5729;43.570;27.826;2022-09-09T14:08:06;6.03;;;1.80;;
11348;SDS011;5729;43.570;27.826;2022-09-09T14:10:33;5.25;;;1.50;;
11348;SDS011;5729;43.570;27.826;2022-09-09T14:13:02;1.40;;;1.25;;
11348;SDS011;5729;43.570;27.826;2022-09-09T14:15:28;7.25;;;1.58;;
11348;SDS011;5729;43.570;27.826;2022-09-09T14:17:54;9.60;;;1.80;;
11348;SDS011;5729;43.570;27.826;2022-09-09T14:20:19;3.85;;;1.73;;
11348;SDS011;5729;43.570;27.826;2022-09-09T14:22:47;5.85;;;1.70;;
11348;SDS011;5729;43.570;27.826;2022-09-09T14:25:12;2.78;;;1.67;;
11348;SDS011;5729;43.570;27.826;2022-09-09T14:27:38;2.95;;;1.58;;
11348;SDS011;5729;43.570;27.826;2022-09-09T14:30:05;1.77;;;1.52;;
11348;SDS011;5729;43.570;27.826;2022-09-09T14:32:31;2.95;;;1.42;;
11348;SDS011;5729;43.570;27.826;2022-09-09T14:34:57;4.03;;;1.52;;
11348;SDS011;5729;43.570;27.826;2022-09-09T14:37:23;3.90;;;1.70;;
11348;SDS011;5729;43.570;27.826;2022-09-09T14:39:49;3.85;;;1.77;;
11348;SDS011;5729;43.570;27.826;2022-09-09T14:42:15;3.83;;;1.25;;
11348;SDS011;5729;43.570;27.826;2022-09-09T14:44:41;2.08;;;1.48;;
11348;SDS011;5729;43.570;27.826;2022-09-09T14:47:06;4.55;;;1.75;;
11348;SDS011;5729;43.570;27.826;2022-09-09T14:49:33;6.80;;;1.73;;
11348;SDS011;5729;43.570;27.826;2022-09-09T14:52:02;4.35;;;2.08;;
11348;SDS011;5729;43.570;27.826;2022-09-09T14:54:29;4.88;;;1.75;;
11348;SDS011;5729;43.570;27.826;2022-09-09T14:56:55;1.75;;;1.65;;
11348;SDS011;5729;43.570;27.826;2022-09-09T14:59:22;6.30;;;1.77;;
11348;SDS011;5729;43.570;27.826;2022-09-09T15:01:47;6.72;;;1.60;;
11348;SDS011;5729;43.570;27.826;2022-09-09T15:04:13;5.55;;;1.70;;
11348;SDS011;5729;43.570;27.826;2022-09-09T15:06:43;3.67;;;1.90;;
11348;SDS011;5729;43.570;27.826;2022-09-09T15:09:12;6.60;;;2.20;;
11348;SDS011;5729;43.570;27.826;2022-09-09T15:11:37;4.68;;;1.88;;
11348;SDS011;5729;43.570;27.826;2022-09-09T15:14:03;3.58;;;1.95;;
11348;SDS011;5729;43.570;27.826;2022-09-09T15:16:30;6.05;;;2.00;;
11348;SDS011;5729;43.570;27.826;2022-09-09T15:18:57;2.10;;;1.85;;
11348;SDS011;5729;43.570;27.826;2022-09-09T15:21:25;4.68;;;1.92;;
11348;SDS011;5729;43.570;27.826;2022-09-09T15:23:52;5.32;;;2.22;;
11348;SDS011;5729;43.570;27.826;2022-09-09T15:26:18;10.10;;;2.72;;
11348;SDS011;5729;43.570;27.826;2022-09-09T15:28:44;9.40;;;2.65;;
11348;SDS011;5729;43.570;27.826;2022-09-09T15:31:16;4.07;;;2.35;;
11348;SDS011;5729;43.570;27.826;2022-09-09T15:33:47;6.75;;;2.70;;
11348;SDS011;5729;43.570;27.826;2022-09-09T15:36:21;4.18;;;1.90;;
11348;SDS011;5729;43.570;27.826;2022-09-09T15:38:49;3.75;;;2.03;;
11348;SDS011;5729;43.570;27.826;2022-09-09T15:41:15;2.58;;;2.05;;
11348;SDS011;5729;43.570;27.826;2022-09-09T15:43:43;3.40;;;2.10;;
11348;SDS011;5729;43.570;27.826;2022-09-09T15:48:53;2.67;;;1.90;;
11348;SDS011;5729;43.570;27.826;2022-09-09T15:51:23;3.17;;;2.20;;
11348;SDS011;5729;43.570;27.826;2022-09-09T15:53:53;3.42;;;2.30;;
11348;SDS011;5729;43.570;27.826;2022-09-09T15:56:20;5.00;;;2.33;;
11348;SDS011;5729;43.570;27.826;2022-09-09T15:58:45;4.15;;;2.30;;
11348;SDS011;5729;43.570;27.826;2022-09-09T16:01:11;9.20;;;2.80;;
11348;SDS011;5729;43.570;27.826;2022-09-09T16:03:38;7.70;;;3.25;;
11348;SDS011;5729;43.570;27.826;2022-09-09T16:06:05;6.88;;;3.65;;
11348;SDS011;5729;43.570;27.826;2022-09-09T16:08:35;6.43;;;2.97;;
11348;SDS011;5729;43.570;27.826;2022-09-09T16:11:09;2.80;;;2.53;;
11348;SDS011;5729;43.570;27.826;2022-09-09T16:13:37;6.63;;;2.35;;
11348;SDS011;5729;43.570;27.826;2022-09-09T16:16:07;6.38;;;2.30;;
11348;SDS011;5729;43.570;27.826;2022-09-09T16:18:54;5.88;;;2.33;;
11348;SDS011;5729;43.570;27.826;2022-09-09T16:21:29;3.15;;;2.67;;
11348;SDS011;5729;43.570;27.826;2022-09-09T16:24:00;4.30;;;2.35;;
11348;SDS011;5729;43.570;27.826;2022-09-09T16:26:28;3.58;;;2.50;;
11348;SDS011;5729;43.570;27.826;2022-09-09T16:28:55;4.65;;;2.47;;
11348;SDS011;5729;43.570;27.826;2022-09-09T16:31:22;3.83;;;2.50;;
11348;SDS011;5729;43.570;27.826;2022-09-09T16:33:49;2.72;;;2.30;;
11348;SDS011;5729;43.570;27.826;2022-09-09T16:36:25;5.63;;;2.60;;
11348;SDS011;5729;43.570;27.826;2022-09-09T16:38:53;4.30;;;2.65;;
11348;SDS011;5729;43.570;27.826;2022-09-09T16:41:22;4.13;;;2.83;;
11348;SDS011;5729;43.570;27.826;2022-09-09T16:43:52;4.05;;;2.30;;
11348;SDS011;5729;43.570;27.826;2022-09-09T16:46:25;6.55;;;2.80;;
11348;SDS011;5729;43.570;27.826;2022-09-09T16:48:53;4.15;;;2.60;;
11348;SDS011;5729;43.570;27.826;2022-09-09T16:51:21;4.53;;;2.40;;
11348;SDS011;5729;43.570;27.826;2022-09-09T16:53:49;5.75;;;2.53;;
11348;SDS011;5729;43.570;27.826;2022-09-09T16:56:16;4.78;;;2.55;;
11348;SDS011;5729;43.570;27.826;2022-09-09T16:58:44;8.55;;;2.70;;
11348;SDS011;5729;43.570;27.826;2022-09-09T17:01:15;6.47;;;2.85;;
11348;SDS011;5729;43.570;27.826;2022-09-09T17:03:40;4.22;;;2.67;;
11348;SDS011;5729;43.570;27.826;2022-09-09T17:06:10;4.78;;;2.90;;
11348;SDS011;5729;43.570;27.826;2022-09-09T17:08:40;4.13;;;2.90;;
11348;SDS011;5729;43.570;27.826;2022-09-09T17:11:14;3.47;;;2.92;;
11348;SDS011;5729;43.570;27.826;2022-09-09T17:13:42;5.65;;;2.90;;
11348;SDS011;5729;43.570;27.826;2022-09-09T17:16:08;4.20;;;2.92;;
11348;SDS011;5729;43.570;27.826;2022-09-09T17:18:34;8.35;;;3.22;;
11348;SDS011;5729;43.570;27.826;2022-09-09T17:21:04;5.07;;;2.95;;
11348;SDS011;5729;43.570;27.826;2022-09-09T17:23:33;4.93;;;2.97;;
11348;SDS011;5729;43.570;27.826;2022-09-09T17:26:03;4.95;;;3.10;;
11348;SDS011;5729;43.570;27.826;2022-09-09T17:28:30;6.15;;;2.92;;
11348;SDS011;5729;43.570;27.826;2022-09-09T17:30:59;4.70;;;2.95;;